createdAt,value
2023-03-19T05:00:44.895Z,1.10
2023-03-19T05:01:44.873Z,1.40
2023-03-19T05:02:44.800Z,1.30
2023-03-19T05:03:44.826Z,1.20
2023-03-19T05:04:44.765Z,1.40
2023-03-19T05:05:44.756Z,1.40
2023-03-19T05:06:44.804Z,1.30
2023-03-19T05:07:44.736Z,1.80
2023-03-19T05:08:44.706Z,1.50
2023-03-19T05:09:44.710Z,1.20
2023-03-19T05:10:44.715Z,1.10
2023-03-19T05:11:44.683Z,1.40
2023-03-19T05:12:44.655Z,1.40
2023-03-19T05:13:51.678Z,1.30
2023-03-19T05:14:44.642Z,1.50
2023-03-19T05:15:44.704Z,1.00
2023-03-19T05:16:44.662Z,1.40
2023-03-19T05:17:44.612Z,1.30
2023-03-19T05:18:44.571Z,1.30
2023-03-19T05:19:44.657Z,1.10
2023-03-19T05:20:44.551Z,1.40
2023-03-19T05:21:44.573Z,1.40
2023-03-19T05:22:44.592Z,1.50
2023-03-19T05:23:44.534Z,1.20
2023-03-19T05:24:44.494Z,1.70
2023-03-19T05:25:44.503Z,1.50
2023-03-19T05:26:44.475Z,1.60
2023-03-19T05:27:44.482Z,1.50
2023-03-19T05:28:44.537Z,1.20
2023-03-19T05:29:44.450Z,1.50
2023-03-19T05:30:44.488Z,1.10
2023-03-19T05:31:44.403Z,1.30
2023-03-19T05:32:44.471Z,1.10
2023-03-19T05:33:44.391Z,1.20
2023-03-19T05:34:44.443Z,1.40
2023-03-19T05:35:44.424Z,1.30
2023-03-19T05:36:44.361Z,1.00
2023-03-19T05:37:44.348Z,1.30
2023-03-19T05:38:44.359Z,1.00
2023-03-19T05:39:44.305Z,0.90
2023-03-19T05:40:44.331Z,1.40
2023-03-19T05:41:44.319Z,1.60
2023-03-19T05:42:44.280Z,0.90
2023-03-19T05:43:44.267Z,1.60
2023-03-19T05:44:44.279Z,1.60
2023-03-19T05:45:44.217Z,1.20
2023-03-19T05:46:44.262Z,1.30
2023-03-19T05:47:44.258Z,1.00
2023-03-19T05:48:44.211Z,1.20
2023-03-19T05:49:44.167Z,1.20
2023-03-19T05:50:44.190Z,1.30
2023-03-19T05:51:44.137Z,1.90
2023-03-19T05:52:44.136Z,1.00
2023-03-19T05:53:44.179Z,1.00
2023-03-19T05:54:44.121Z,1.50
2023-03-19T05:55:44.097Z,1.20
2023-03-19T05:56:44.102Z,0.80
2023-03-19T05:57:44.076Z,1.40
2023-03-19T05:58:44.098Z,1.40
2023-03-19T05:59:44.092Z,1.50
2023-03-19T06:00:44.091Z,1.20
2023-03-19T06:01:44.062Z,1.00
2023-03-19T06:02:51.093Z,1.00
2023-03-19T06:03:46.739Z,1.00
2023-03-19T06:04:43.984Z,1.50
2023-03-19T06:05:44.008Z,1.10
2023-03-19T06:06:43.965Z,1.30
2023-03-19T06:07:43.929Z,0.90
2023-03-19T06:08:43.987Z,1.20
2023-03-19T06:09:43.915Z,1.00
2023-03-19T06:10:43.915Z,0.90
2023-03-19T06:11:43.983Z,1.10
2023-03-19T06:12:43.906Z,1.00
2023-03-19T06:13:43.884Z,1.60
2023-03-19T06:14:43.872Z,1.50
2023-03-19T06:15:43.913Z,1.30
2023-03-19T06:16:43.838Z,1.40
2023-03-19T06:17:43.871Z,1.50
2023-03-19T06:18:43.832Z,1.60
2023-03-19T06:19:43.782Z,1.30
2023-03-19T06:20:43.791Z,1.80
2023-03-19T06:21:43.767Z,1.50
2023-03-19T06:22:43.771Z,1.40
2023-03-19T06:23:43.781Z,1.40
2023-03-19T06:24:43.742Z,0.90
2023-03-19T06:25:43.761Z,1.50
2023-03-19T06:26:43.746Z,1.50
2023-03-19T06:27:43.690Z,1.10
2023-03-19T06:28:43.676Z,1.20
2023-03-19T06:29:43.649Z,1.20
2023-03-19T06:30:43.721Z,1.50
2023-03-19T06:31:43.674Z,1.10
2023-03-19T06:32:43.737Z,1.20
2023-03-19T06:33:43.615Z,1.30
2023-03-19T06:34:43.620Z,1.40
2023-03-19T06:35:43.582Z,1.50
2023-03-19T06:36:43.763Z,1.90
2023-03-19T06:37:43.542Z,1.40
2023-03-19T06:38:43.686Z,1.40
2023-03-19T06:39:43.543Z,1.40
2023-03-19T06:40:43.521Z,1.40
2023-03-19T06:41:43.499Z,1.30
2023-03-19T06:42:43.565Z,1.30
2023-03-19T06:43:43.482Z,1.70
2023-03-19T06:44:43.490Z,1.60
2023-03-19T06:45:43.470Z,1.30
2023-03-19T06:46:43.468Z,1.10
2023-03-19T06:47:43.414Z,1.50
2023-03-19T06:48:43.600Z,1.80
2023-03-19T06:49:43.401Z,1.70
2023-03-19T06:50:43.401Z,1.50
2023-03-19T06:51:43.359Z,1.20
2023-03-19T06:52:43.389Z,1.30
2023-03-19T06:53:43.350Z,1.30
2023-03-19T06:54:43.404Z,1.60
2023-03-19T06:55:43.317Z,1.80
2023-03-19T06:56:43.377Z,1.20
2023-03-19T06:57:43.308Z,1.40
2023-03-19T06:58:43.299Z,1.30
2023-03-19T06:59:43.278Z,1.30
2023-03-19T07:00:43.395Z,1.00
2023-03-19T07:01:43.250Z,1.10
2023-03-19T07:02:43.256Z,1.30
2023-03-19T07:03:43.282Z,1.20
2023-03-19T07:04:43.242Z,1.30
2023-03-19T07:05:43.188Z,1.50
2023-03-19T07:06:43.269Z,1.10
2023-03-19T07:07:43.171Z,1.40
2023-03-19T07:08:43.184Z,1.30
2023-03-19T07:09:43.153Z,1.20
2023-03-19T07:10:43.167Z,1.20
2023-03-19T07:11:43.134Z,1.50
2023-03-19T07:12:43.190Z,1.60
2023-03-19T07:13:43.106Z,1.20
2023-03-19T07:14:43.104Z,1.10
2023-03-19T07:15:43.080Z,1.50
2023-03-19T07:16:43.146Z,2.00
2023-03-19T07:17:43.048Z,1.40
2023-03-19T07:18:43.094Z,1.30
2023-03-19T07:19:43.028Z,1.10
2023-03-19T07:20:43.041Z,1.70
2023-03-19T07:21:43.010Z,1.10
2023-03-19T07:22:43.000Z,1.50
2023-03-19T07:23:42.969Z,1.30
2023-03-19T07:24:43.024Z,1.10
2023-03-19T07:25:42.933Z,1.30
2023-03-19T07:26:42.939Z,1.40
2023-03-19T07:27:42.901Z,1.40
2023-03-19T07:28:42.929Z,1.80
2023-03-19T07:29:42.886Z,1.10
2023-03-19T07:30:42.940Z,1.70
2023-03-19T07:31:42.918Z,1.30
2023-03-19T07:32:42.932Z,1.40
2023-03-19T07:33:42.836Z,1.20
2023-03-19T07:34:42.851Z,1.50
2023-03-19T07:35:42.838Z,1.50
2023-03-19T07:36:42.854Z,1.60
2023-03-19T07:37:42.769Z,1.80
2023-03-19T07:38:42.792Z,1.20
2023-03-19T07:39:42.754Z,1.30
2023-03-19T07:40:51.366Z,1.30
2023-03-19T07:41:43.779Z,1.30
2023-03-19T07:42:45.046Z,1.20
2023-03-19T07:43:42.699Z,1.40
2023-03-19T07:44:42.708Z,1.10
2023-03-19T07:45:42.741Z,1.50
2023-03-19T07:46:42.689Z,1.50
2023-03-19T07:47:42.682Z,0.90
2023-03-19T07:48:42.655Z,1.00
2023-03-19T07:49:42.614Z,1.30
2023-03-19T07:50:42.695Z,0.90
2023-03-19T07:51:42.607Z,1.10
2023-03-19T07:52:42.607Z,1.30
2023-03-19T07:53:42.574Z,1.30
2023-03-19T07:54:42.583Z,1.00
2023-03-19T07:55:42.546Z,1.30
2023-03-19T07:56:42.645Z,1.60
2023-03-19T07:57:42.540Z,1.30
2023-03-19T07:58:42.524Z,1.20
2023-03-19T07:59:42.489Z,1.00
2023-03-19T08:00:42.517Z,1.10
2023-03-19T08:01:42.518Z,1.30
2023-03-19T08:02:42.506Z,1.30
2023-03-19T08:03:42.460Z,1.50
2023-03-19T08:04:42.652Z,0.90
2023-03-19T08:05:42.451Z,1.30
2023-03-19T08:06:42.410Z,1.00
2023-03-19T08:07:42.372Z,1.20
2023-03-19T08:08:42.371Z,1.70
2023-03-19T08:09:42.351Z,1.10
2023-03-19T08:10:42.406Z,1.40
2023-03-19T08:11:42.395Z,1.20
2023-03-19T08:12:42.351Z,1.80
2023-03-19T08:13:42.306Z,1.20
2023-03-19T08:14:42.300Z,1.20
2023-03-19T08:15:42.270Z,1.40
2023-03-19T08:16:42.373Z,1.20
2023-03-19T08:17:42.287Z,1.30
2023-03-19T08:18:42.249Z,1.50
2023-03-19T08:19:42.402Z,1.30
2023-03-19T08:20:42.230Z,1.30
2023-03-19T08:21:42.254Z,1.30
2023-03-19T08:22:42.194Z,1.30
2023-03-19T08:23:42.489Z,1.30
2023-03-19T08:24:42.172Z,1.10
2023-03-19T08:25:42.171Z,1.30
2023-03-19T08:26:42.175Z,1.40
2023-03-19T08:27:42.112Z,1.20
2023-03-19T08:28:42.123Z,1.10
2023-03-19T08:29:42.159Z,1.50
2023-03-19T08:30:42.138Z,1.30
2023-03-19T08:31:42.046Z,1.60
2023-03-19T08:32:42.078Z,1.30
2023-03-19T08:33:42.017Z,1.20
2023-03-19T08:34:42.030Z,1.30
2023-03-19T08:35:42.353Z,1.00
2023-03-19T08:36:42.018Z,0.90
2023-03-19T08:37:41.967Z,1.10
2023-03-19T08:38:41.969Z,1.30
2023-03-19T08:39:41.943Z,1.00
2023-03-19T08:40:41.945Z,1.20
2023-03-19T08:41:41.960Z,1.10
2023-03-19T08:42:44.456Z,1.10
2023-03-19T08:43:41.885Z,1.10
2023-03-19T08:44:41.895Z,1.40
2023-03-19T08:45:41.854Z,1.50
2023-03-19T08:46:41.961Z,1.20
2023-03-19T08:47:41.903Z,1.40
2023-03-19T08:48:41.844Z,1.50
2023-03-19T08:49:41.839Z,1.20
2023-03-19T08:50:41.833Z,1.50
2023-03-19T08:51:41.774Z,1.30
2023-03-19T08:52:41.785Z,1.50
2023-03-19T08:53:41.833Z,1.50
2023-03-19T08:54:41.802Z,1.30
2023-03-19T08:55:41.734Z,1.30
2023-03-19T08:56:41.766Z,1.10
2023-03-19T08:57:41.735Z,1.20
2023-03-19T08:58:41.727Z,1.30
2023-03-19T08:59:41.727Z,1.20
2023-03-19T09:00:41.713Z,1.40
2023-03-19T09:01:41.719Z,1.20
2023-03-19T09:02:41.675Z,1.40
2023-03-19T09:03:41.639Z,1.30
2023-03-19T09:04:41.826Z,1.70
2023-03-19T09:05:41.661Z,1.60
2023-03-19T09:06:41.601Z,1.40
2023-03-19T09:07:41.576Z,1.20
2023-03-19T09:08:41.581Z,1.50
2023-03-19T09:09:41.541Z,1.30
2023-03-19T09:10:41.559Z,1.40
2023-03-19T09:11:41.559Z,1.60
2023-03-19T09:12:41.532Z,1.20
2023-03-19T09:13:41.489Z,1.40
2023-03-19T09:14:41.509Z,1.20
2023-03-19T09:15:41.534Z,1.10
2023-03-19T09:16:41.639Z,1.10
2023-03-19T09:17:41.514Z,1.60
2023-03-19T09:18:41.451Z,1.10
2023-03-19T09:19:41.411Z,1.20
2023-03-19T09:20:41.454Z,1.20
2023-03-19T09:21:41.473Z,1.20
2023-03-19T09:22:41.387Z,1.30
2023-03-19T09:23:41.358Z,1.20
2023-03-19T09:24:41.376Z,1.10
2023-03-19T09:25:41.349Z,1.30
2023-03-19T09:26:41.368Z,1.50
2023-03-19T09:27:41.359Z,1.20
2023-03-19T09:28:41.323Z,1.30
2023-03-19T09:29:41.284Z,1.10
2023-03-19T09:30:41.302Z,1.20
2023-03-19T09:31:41.334Z,1.30
2023-03-19T09:32:41.387Z,1.10
2023-03-19T09:33:41.275Z,1.10
2023-03-19T09:34:41.327Z,1.20
2023-03-19T09:35:41.289Z,1.20
2023-03-19T09:36:41.272Z,1.20
2023-03-19T09:37:41.171Z,1.50
2023-03-19T09:38:41.172Z,1.00
2023-03-19T09:39:41.151Z,0.90
2023-03-19T09:40:41.165Z,0.90
2023-03-19T09:41:41.270Z,1.20
2023-03-19T09:42:41.099Z,1.00
2023-03-19T09:43:41.202Z,1.30
2023-03-19T09:44:41.142Z,0.90
2023-03-19T09:45:41.080Z,1.30
2023-03-19T09:46:41.056Z,1.20
2023-03-19T09:47:41.112Z,1.30
2023-03-19T09:48:41.061Z,1.40
2023-03-19T09:49:41.029Z,1.20
2023-03-19T09:50:41.100Z,1.40
2023-03-19T09:51:41.019Z,0.90
2023-03-19T09:52:40.971Z,1.10
2023-03-19T09:53:41.000Z,1.10
2023-03-19T09:54:40.957Z,1.10
2023-03-19T09:55:41.001Z,1.00
2023-03-19T09:56:40.928Z,1.10
2023-03-19T09:57:40.939Z,1.10
2023-03-19T09:58:40.939Z,1.00
2023-03-19T09:59:40.911Z,1.10
2023-03-19T10:00:40.937Z,1.20
2023-03-19T10:01:40.919Z,1.00
2023-03-19T10:02:40.851Z,1.00
2023-03-19T10:03:40.919Z,0.80
2023-03-19T10:04:40.838Z,1.00
2023-03-19T10:05:41.328Z,1.00
2023-03-19T10:06:40.849Z,1.00
2023-03-19T10:07:40.801Z,1.20
2023-03-19T10:08:40.779Z,1.00
2023-03-19T10:09:40.779Z,1.00
2023-03-19T10:10:40.750Z,0.90
2023-03-19T10:11:40.787Z,0.90
2023-03-19T10:12:40.707Z,1.10
2023-03-19T10:13:40.720Z,0.90
2023-03-19T10:14:40.709Z,0.70
2023-03-19T10:15:40.687Z,1.00
2023-03-19T10:16:40.728Z,0.90
2023-03-19T10:17:40.720Z,0.80
2023-03-19T10:18:40.668Z,0.90
2023-03-19T10:19:41.110Z,0.80
2023-03-19T10:20:40.609Z,1.30
2023-03-19T10:21:40.619Z,0.70
2023-03-19T10:22:40.567Z,0.70
2023-03-19T10:23:40.628Z,0.80
2023-03-19T10:24:40.559Z,0.60
2023-03-19T10:25:41.648Z,0.60
2023-03-19T10:26:40.532Z,0.70
2023-03-19T10:27:40.526Z,0.80
2023-03-19T10:28:40.509Z,0.80
2023-03-19T10:29:40.686Z,0.80
2023-03-19T10:30:40.498Z,0.90
2023-03-19T10:31:40.543Z,0.90
2023-03-19T10:32:40.463Z,0.60
2023-03-19T10:33:40.461Z,0.60
2023-03-19T10:34:40.477Z,0.70
2023-03-19T10:35:40.522Z,0.60
2023-03-19T10:36:40.458Z,0.60
2023-03-19T10:37:40.397Z,0.50
2023-03-19T10:38:40.368Z,0.70
2023-03-19T10:39:40.377Z,0.60
2023-03-19T10:40:40.397Z,0.50
2023-03-19T10:41:40.347Z,0.70
2023-03-19T10:42:40.323Z,0.70
2023-03-19T10:43:40.327Z,0.60
2023-03-19T10:44:40.287Z,0.60
2023-03-19T10:45:40.754Z,0.50
2023-03-19T10:46:40.348Z,0.60
2023-03-19T10:47:40.283Z,0.50
2023-03-19T10:48:40.238Z,0.50
2023-03-19T10:49:40.259Z,0.70
2023-03-19T10:50:40.207Z,0.60
2023-03-19T10:51:40.217Z,0.60
2023-03-19T10:52:40.356Z,0.50
2023-03-19T10:53:40.170Z,0.60
2023-03-19T10:54:40.186Z,0.80
2023-03-19T10:55:40.227Z,0.70
2023-03-19T10:56:40.128Z,0.40
2023-03-19T10:57:40.132Z,0.60
2023-03-19T10:58:40.107Z,0.60
2023-03-19T10:59:40.107Z,0.50
2023-03-19T11:00:40.111Z,0.70
2023-03-19T11:01:40.157Z,0.60
2023-03-19T11:02:40.048Z,0.70
2023-03-19T11:03:40.102Z,0.60
2023-03-19T11:04:40.040Z,0.50
2023-03-19T11:05:40.062Z,0.80
2023-03-19T11:06:40.006Z,0.60
2023-03-19T11:07:40.053Z,0.60
2023-03-19T11:08:39.963Z,0.60
2023-03-19T11:09:40.038Z,0.60
2023-03-19T11:10:39.954Z,0.60
2023-03-19T11:11:39.942Z,0.80
2023-03-19T11:12:39.909Z,0.50
2023-03-19T11:13:47.019Z,0.80
2023-03-19T11:14:39.887Z,0.40
2023-03-19T11:15:39.938Z,0.60
2023-03-19T11:16:42.628Z,0.60
2023-03-19T11:17:39.882Z,0.60
2023-03-19T11:18:39.880Z,0.40
2023-03-19T11:19:39.899Z,0.60
2023-03-19T11:20:40.078Z,0.50
2023-03-19T11:21:39.826Z,0.60
2023-03-19T11:22:39.793Z,0.50
2023-03-19T11:23:39.805Z,0.70
2023-03-19T11:24:39.780Z,0.60
2023-03-19T11:25:39.773Z,0.70
2023-03-19T11:26:39.795Z,0.50
2023-03-19T11:27:39.745Z,0.60
2023-03-19T11:28:39.714Z,0.80
2023-03-19T11:29:39.721Z,0.70
2023-03-19T11:30:39.686Z,0.50
2023-03-19T11:31:39.705Z,0.80
2023-03-19T11:32:39.780Z,0.60
2023-03-19T11:33:39.652Z,0.70
2023-03-19T11:34:39.623Z,0.70
2023-03-19T11:35:39.702Z,0.50
2023-03-19T11:36:39.610Z,0.70
2023-03-19T11:37:39.607Z,0.60
2023-03-19T11:38:39.633Z,0.70
2023-03-19T11:39:39.592Z,0.60
2023-03-19T11:40:39.567Z,0.60
2023-03-19T11:41:39.546Z,0.70
2023-03-19T11:42:39.546Z,0.70
2023-03-19T11:43:39.524Z,0.60
2023-03-19T11:44:39.551Z,0.60
2023-03-19T11:45:42.007Z,0.70
2023-03-19T11:46:39.509Z,0.70
2023-03-19T11:47:39.492Z,0.70
2023-03-19T11:48:39.672Z,0.60
2023-03-19T11:49:39.463Z,0.70
2023-03-19T11:50:39.616Z,0.70
2023-03-19T11:51:39.425Z,0.60
2023-03-19T11:52:39.414Z,0.60
2023-03-19T11:53:39.387Z,0.70
2023-03-19T11:54:39.368Z,0.60
2023-03-19T11:55:39.363Z,0.60
2023-03-19T11:56:39.384Z,0.50
2023-03-19T11:57:39.349Z,0.60
2023-03-19T11:58:39.335Z,0.50
2023-03-19T11:59:39.417Z,0.60
2023-03-19T12:00:39.410Z,0.50
2023-03-19T12:01:39.464Z,0.60
2023-03-19T12:02:39.296Z,0.80
2023-03-19T12:03:39.353Z,0.70
2023-03-19T12:04:39.234Z,0.70
2023-03-19T12:05:39.241Z,0.90
2023-03-19T12:06:39.337Z,0.70
2023-03-19T12:07:39.216Z,0.70
2023-03-19T12:08:39.183Z,0.60
2023-03-19T12:09:39.193Z,0.50
2023-03-19T12:10:39.157Z,0.60
2023-03-19T12:11:39.176Z,0.70
2023-03-19T12:12:39.219Z,0.70
2023-03-19T12:13:39.125Z,0.70
2023-03-19T12:14:39.113Z,0.70
2023-03-19T12:15:39.127Z,0.60
2023-03-19T12:16:45.753Z,0.50
2023-03-19T12:17:40.289Z,0.70
2023-03-19T12:18:39.045Z,0.60
2023-03-19T12:19:39.098Z,0.70
2023-03-19T12:20:39.036Z,0.60
2023-03-19T12:21:39.037Z,0.60
2023-03-19T12:22:39.003Z,0.80
2023-03-19T12:23:39.289Z,0.70
2023-03-19T12:24:38.974Z,0.50
2023-03-19T12:25:39.008Z,0.70
2023-03-19T12:26:39.057Z,0.80
2023-03-19T12:27:38.986Z,0.80
2023-03-19T12:28:38.967Z,0.70
2023-03-19T12:29:40.262Z,0.70
2023-03-19T12:30:38.907Z,0.80
2023-03-19T12:31:38.904Z,0.50
2023-03-19T12:32:38.895Z,0.50
2023-03-19T12:33:38.914Z,0.50
2023-03-19T12:34:38.852Z,0.70
2023-03-19T12:35:39.069Z,0.60
2023-03-19T12:36:38.812Z,0.50
2023-03-19T12:37:38.895Z,0.70
2023-03-19T12:38:38.804Z,0.50
2023-03-19T12:39:38.856Z,0.70
2023-03-19T12:40:38.982Z,0.70
2023-03-19T12:41:38.761Z,0.60
2023-03-19T12:42:38.732Z,0.70
2023-03-19T12:43:38.757Z,0.60
2023-03-19T12:44:38.712Z,0.50
2023-03-19T12:45:38.719Z,0.70
2023-03-19T12:46:38.848Z,0.60
2023-03-19T12:47:38.671Z,0.70
2023-03-19T12:48:38.678Z,0.50
2023-03-19T12:49:38.700Z,0.60
2023-03-19T12:50:38.629Z,0.50
2023-03-19T12:51:38.645Z,0.70
2023-03-19T12:52:38.666Z,0.70
2023-03-19T12:53:38.618Z,0.60
2023-03-19T12:54:38.609Z,0.70
2023-03-19T12:55:38.662Z,0.50
2023-03-19T12:56:38.592Z,0.50
2023-03-19T12:57:38.669Z,0.70
2023-03-19T12:58:38.527Z,0.60
2023-03-19T12:59:38.542Z,0.50
2023-03-19T13:00:38.561Z,0.60
2023-03-19T13:01:38.681Z,0.50
2023-03-19T13:02:38.535Z,0.50
2023-03-19T13:03:38.479Z,0.60
2023-03-19T13:04:45.522Z,0.60
2023-03-19T13:05:38.492Z,0.60
2023-03-19T13:06:42.775Z,0.60
2023-03-19T13:07:38.420Z,0.60
2023-03-19T13:08:38.398Z,0.90
2023-03-19T13:09:38.416Z,0.60
2023-03-19T13:10:38.364Z,0.70
2023-03-19T13:11:38.383Z,0.60
2023-03-19T13:12:38.401Z,0.70
2023-03-19T13:13:38.340Z,0.60
2023-03-19T13:14:38.322Z,0.70
2023-03-19T13:15:38.387Z,0.70
2023-03-19T13:16:38.340Z,0.80
2023-03-19T13:17:38.331Z,0.60
2023-03-19T13:18:38.351Z,0.60
2023-03-19T13:19:38.270Z,0.60
2023-03-19T13:20:38.229Z,0.60
2023-03-19T13:21:38.230Z,0.60
2023-03-19T13:22:38.222Z,0.70
2023-03-19T13:23:38.220Z,0.60
2023-03-19T13:24:38.250Z,0.60
2023-03-19T13:25:38.278Z,0.50
2023-03-19T13:26:38.160Z,0.70
2023-03-19T13:27:38.170Z,0.70
2023-03-19T13:28:38.141Z,0.60
2023-03-19T13:29:38.142Z,0.60
2023-03-19T13:30:38.137Z,0.60
2023-03-19T13:31:38.195Z,0.70
2023-03-19T13:32:38.109Z,0.70
2023-03-19T13:33:38.081Z,0.70
2023-03-19T13:34:38.051Z,0.60
2023-03-19T13:35:38.142Z,0.70
2023-03-19T13:36:38.032Z,0.60
2023-03-19T13:37:38.026Z,1.40
2023-03-19T13:38:38.013Z,0.60
2023-03-19T13:39:38.008Z,0.60
2023-03-19T13:40:37.981Z,0.80
2023-03-19T13:41:38.055Z,0.60
2023-03-19T13:42:37.971Z,0.50
2023-03-19T13:43:37.963Z,0.80
2023-03-19T13:44:37.924Z,0.60
2023-03-19T13:45:38.080Z,0.50
2023-03-19T13:46:37.967Z,0.50
2023-03-19T13:47:37.977Z,0.50
2023-03-19T13:48:37.860Z,0.70
2023-03-19T13:49:37.885Z,0.90
2023-03-19T13:50:38.199Z,0.60
2023-03-19T13:51:37.837Z,0.60
2023-03-19T13:52:37.810Z,0.60
2023-03-19T13:53:37.936Z,0.60
2023-03-19T13:54:37.797Z,0.70
2023-03-19T13:55:37.849Z,0.70
2023-03-19T13:56:37.787Z,0.60
2023-03-19T13:57:37.743Z,0.60
2023-03-19T13:58:37.812Z,0.60
2023-03-19T13:59:37.746Z,0.60
2023-03-19T14:00:37.751Z,0.80
2023-03-19T14:01:37.760Z,0.60
2023-03-19T14:02:37.727Z,0.70
2023-03-19T14:03:37.756Z,0.60
2023-03-19T14:04:37.673Z,0.50
2023-03-19T14:05:37.777Z,0.60
2023-03-19T14:06:37.721Z,0.50
2023-03-19T14:07:37.704Z,0.70
2023-03-19T14:08:37.625Z,0.70
2023-03-19T14:09:37.601Z,0.70
2023-03-19T14:10:37.609Z,0.60
2023-03-19T14:11:37.558Z,0.50
2023-03-19T14:12:37.583Z,0.50
2023-03-19T14:13:37.591Z,0.50
2023-03-19T14:14:37.556Z,0.80
2023-03-19T14:15:37.515Z,0.60
2023-03-19T14:16:37.573Z,0.60
2023-03-19T14:17:37.510Z,0.90
2023-03-19T14:18:37.513Z,0.50
2023-03-19T14:19:37.883Z,0.70
2023-03-19T14:20:40.835Z,0.60
2023-03-19T14:21:37.457Z,0.70
2023-03-19T14:22:37.452Z,0.60
2023-03-19T14:23:42.713Z,0.60
2023-03-19T14:24:56.815Z,0.70
2023-03-19T14:25:38.426Z,0.60
2023-03-19T14:26:37.395Z,0.50
2023-03-19T14:27:37.359Z,0.70
2023-03-19T14:28:37.376Z,0.70
2023-03-19T14:29:37.325Z,0.50
2023-03-19T14:30:37.890Z,0.50
2023-03-19T14:31:37.436Z,0.60
2023-03-19T14:32:37.336Z,0.70
2023-03-19T14:33:37.277Z,0.50
2023-03-19T14:34:37.283Z,0.60
2023-03-19T14:35:37.381Z,0.70
2023-03-19T14:36:37.306Z,0.80
2023-03-19T14:37:37.304Z,0.80
2023-03-19T14:38:37.233Z,0.60
2023-03-19T14:39:39.506Z,0.50
2023-03-19T14:40:37.383Z,0.60
2023-03-19T14:41:37.191Z,0.50
2023-03-19T14:42:37.174Z,0.50
2023-03-19T14:43:37.214Z,0.80
2023-03-19T14:44:37.147Z,0.40
2023-03-19T14:45:37.166Z,0.70
2023-03-19T14:46:37.127Z,0.60
2023-03-19T14:47:37.103Z,0.50
2023-03-19T14:48:37.114Z,0.70
2023-03-19T14:49:37.118Z,0.50
2023-03-19T14:50:38.250Z,0.60
2023-03-19T14:51:37.037Z,0.70
2023-03-19T14:52:37.045Z,0.60
2023-03-19T14:53:37.075Z,0.70
2023-03-19T14:54:37.038Z,0.60
2023-03-19T14:55:37.241Z,0.60
2023-03-19T14:56:37.009Z,0.60
2023-03-19T14:57:36.989Z,0.50
2023-03-19T14:58:36.966Z,0.60
2023-03-19T14:59:36.941Z,0.50
2023-03-19T15:00:36.996Z,0.60
2023-03-19T15:01:37.039Z,0.50
2023-03-19T15:02:36.916Z,0.50
2023-03-19T15:03:36.874Z,0.70
2023-03-19T15:04:36.962Z,0.50
2023-03-19T15:05:37.300Z,0.40
2023-03-19T15:06:36.871Z,0.50
2023-03-19T15:07:36.887Z,0.60
2023-03-19T15:08:36.825Z,0.60
2023-03-19T15:09:36.801Z,0.70
2023-03-19T15:10:36.870Z,0.90
2023-03-19T15:11:36.769Z,0.80
2023-03-19T15:12:36.793Z,0.60
2023-03-19T15:13:36.744Z,0.70
2023-03-19T15:14:36.784Z,0.40
2023-03-19T15:15:37.042Z,0.60
2023-03-19T15:16:36.844Z,0.50
2023-03-19T15:17:38.680Z,0.80
2023-03-19T15:18:36.765Z,0.60
2023-03-19T15:19:36.663Z,0.50
2023-03-19T15:20:36.682Z,0.50
2023-03-19T15:21:36.652Z,0.50
2023-03-19T15:22:36.708Z,0.90
2023-03-19T15:23:36.612Z,0.70
2023-03-19T15:24:36.614Z,0.60
2023-03-19T15:25:36.920Z,0.60
2023-03-19T15:26:36.603Z,0.50
2023-03-19T15:27:36.559Z,0.70
2023-03-19T15:28:38.486Z,0.60
2023-03-19T15:29:38.132Z,0.70
2023-03-19T15:30:50.424Z,0.40
2023-03-19T15:31:49.523Z,0.70
2023-03-19T15:32:54.432Z,0.40
2023-03-19T15:33:41.559Z,0.60
2023-03-19T15:34:37.650Z,0.60
2023-03-19T15:35:36.522Z,0.60
2023-03-19T15:36:36.450Z,0.50
2023-03-19T15:37:36.427Z,0.50
2023-03-19T15:38:36.527Z,0.50
2023-03-19T15:39:36.475Z,0.60
2023-03-19T15:40:36.608Z,0.40
2023-03-19T15:41:36.380Z,0.40
2023-03-19T15:42:36.388Z,0.60
2023-03-19T15:43:36.338Z,0.60
2023-03-19T15:44:36.363Z,0.60
2023-03-19T15:45:36.374Z,0.70
2023-03-19T15:46:36.394Z,0.60
2023-03-19T15:47:36.288Z,0.90
2023-03-19T15:48:36.307Z,0.60
2023-03-19T15:49:36.318Z,0.70
2023-03-19T15:50:36.688Z,0.70
2023-03-19T15:51:36.310Z,0.90
2023-03-19T15:52:36.242Z,0.70
2023-03-19T15:53:36.215Z,0.50
2023-03-19T15:54:36.218Z,0.90
2023-03-19T15:55:36.571Z,0.70
2023-03-19T15:56:36.224Z,0.70
2023-03-19T15:57:36.235Z,0.60
2023-03-19T15:58:36.187Z,2.50
2023-03-19T15:59:36.126Z,1.00
2023-03-19T16:00:38.702Z,0.80
2023-03-19T16:01:36.176Z,0.70
2023-03-19T16:02:36.135Z,0.70
2023-03-19T16:03:36.124Z,0.60
2023-03-19T16:04:50.304Z,0.90
2023-03-19T16:05:37.068Z,0.60
2023-03-19T16:06:36.070Z,0.70
2023-03-19T16:07:36.028Z,0.60
2023-03-19T16:08:36.038Z,1.00
2023-03-19T16:09:36.070Z,0.70
2023-03-19T16:10:36.300Z,0.80
2023-03-19T16:11:35.984Z,0.80
2023-03-19T16:12:35.977Z,1.00
2023-03-19T16:13:36.018Z,1.20
2023-03-19T16:14:35.982Z,1.10
2023-03-19T16:15:36.065Z,0.80
2023-03-19T16:16:35.934Z,0.90
2023-03-19T16:17:35.941Z,0.60
2023-03-19T16:18:35.909Z,0.90
2023-03-19T16:19:35.877Z,1.10
2023-03-19T16:20:36.223Z,0.90
2023-03-19T16:21:35.846Z,1.00
2023-03-19T16:22:35.858Z,0.90
2023-03-19T16:23:35.847Z,1.10
2023-03-19T16:24:35.823Z,0.90
2023-03-19T16:25:36.041Z,1.10
2023-03-19T16:26:35.841Z,1.00
2023-03-19T16:27:35.758Z,1.30
2023-03-19T16:28:35.785Z,1.00
2023-03-19T16:29:35.739Z,0.80
2023-03-19T16:30:35.909Z,0.90
2023-03-19T16:31:35.772Z,0.90
2023-03-19T16:32:35.800Z,0.80
2023-03-19T16:33:35.694Z,0.70
2023-03-19T16:34:35.709Z,0.70
2023-03-19T16:35:35.743Z,0.80
2023-03-19T16:36:35.654Z,0.80
2023-03-19T16:37:35.622Z,0.70
2023-03-19T16:38:35.701Z,1.10
2023-03-19T16:39:35.608Z,0.90
2023-03-19T16:40:35.819Z,1.10
2023-03-19T16:41:35.659Z,0.80
2023-03-19T16:42:35.590Z,0.90
2023-03-19T16:43:35.541Z,1.10
2023-03-19T16:44:35.617Z,0.90
2023-03-19T16:45:35.787Z,0.70
2023-03-19T16:46:35.645Z,0.60
2023-03-19T16:47:35.501Z,0.80
2023-03-19T16:48:35.602Z,0.80
2023-03-19T16:49:35.471Z,1.00
2023-03-19T16:50:35.573Z,0.80
2023-03-19T16:51:35.440Z,0.80
2023-03-19T16:52:35.439Z,0.50
2023-03-19T16:53:35.408Z,0.80
2023-03-19T16:54:35.436Z,1.10
2023-03-19T16:55:35.705Z,1.10
2023-03-19T16:56:35.460Z,1.10
2023-03-19T16:57:35.388Z,0.90
2023-03-19T16:58:35.367Z,1.00
2023-03-19T16:59:35.336Z,0.90
2023-03-19T17:00:35.356Z,0.80
2023-03-19T17:01:35.332Z,0.80
2023-03-19T17:02:35.411Z,0.90
2023-03-19T17:03:35.285Z,1.10
2023-03-19T17:04:35.315Z,0.90
2023-03-19T17:05:35.547Z,0.80
2023-03-19T17:06:35.264Z,0.70
2023-03-19T17:07:35.227Z,1.00
2023-03-19T17:08:35.275Z,0.70
2023-03-19T17:09:35.205Z,0.80
2023-03-19T17:10:35.202Z,0.80
2023-03-19T17:11:35.246Z,0.80
2023-03-19T17:12:35.188Z,0.90
2023-03-19T17:13:35.174Z,1.00
2023-03-19T17:14:35.205Z,0.60
2023-03-19T17:15:35.414Z,0.50
2023-03-19T17:16:35.253Z,0.80
2023-03-19T17:17:35.114Z,0.60
2023-03-19T17:18:35.146Z,0.80
2023-03-19T17:19:35.082Z,0.80
2023-03-19T17:20:35.090Z,0.70
2023-03-19T17:21:35.104Z,0.80
2023-03-19T17:22:35.062Z,0.70
2023-03-19T17:23:35.043Z,0.50
2023-03-19T17:24:35.053Z,0.70
2023-03-19T17:25:35.330Z,0.60
2023-03-19T17:26:35.019Z,0.80
2023-03-19T17:27:35.050Z,1.00
2023-03-19T17:28:35.040Z,0.60
2023-03-19T17:29:34.949Z,0.80
2023-03-19T17:30:35.368Z,0.70
2023-03-19T17:31:34.942Z,0.80
2023-03-19T17:32:34.978Z,0.90
2023-03-19T17:33:34.949Z,0.90
2023-03-19T17:34:34.909Z,0.90
2023-03-19T17:35:34.946Z,0.50
2023-03-19T17:36:34.896Z,1.00
2023-03-19T17:37:34.856Z,1.00
2023-03-19T17:38:34.907Z,0.80
2023-03-19T17:39:34.827Z,0.90
2023-03-19T17:40:35.097Z,0.70
2023-03-19T17:41:34.863Z,1.00
2023-03-19T17:42:34.801Z,0.80
2023-03-19T17:43:34.777Z,1.00
2023-03-19T17:44:34.788Z,0.60
2023-03-19T17:45:34.749Z,0.70
2023-03-19T17:46:34.791Z,1.00
2023-03-19T17:47:34.769Z,0.80
2023-03-19T17:48:34.761Z,1.20
2023-03-19T17:49:34.712Z,1.20
2023-03-19T17:50:35.013Z,0.80
2023-03-19T17:51:34.665Z,1.00
2023-03-19T17:52:34.684Z,1.10
2023-03-19T17:53:34.725Z,2.50
2023-03-19T17:54:34.647Z,1.40
2023-03-19T17:55:34.631Z,1.20
2023-03-19T17:56:34.618Z,1.20
2023-03-19T17:57:34.588Z,1.00
2023-03-19T17:58:34.598Z,0.80
2023-03-19T17:59:34.629Z,0.90
2023-03-19T18:00:34.859Z,0.80
2023-03-19T18:01:34.589Z,0.80
2023-03-19T18:02:34.662Z,0.70
2023-03-19T18:03:34.529Z,0.80
2023-03-19T18:04:34.576Z,0.70
2023-03-19T18:05:34.553Z,0.90
2023-03-19T18:06:34.500Z,0.80
2023-03-19T18:07:34.473Z,0.70
2023-03-19T18:08:34.456Z,0.80
2023-03-19T18:09:34.479Z,1.10
2023-03-19T18:10:34.713Z,1.00
2023-03-19T18:11:34.484Z,0.90
2023-03-19T18:12:34.420Z,0.90
2023-03-19T18:13:34.421Z,0.70
2023-03-19T18:14:34.382Z,1.10
2023-03-19T18:15:34.387Z,1.10
2023-03-19T18:16:34.456Z,0.90
2023-03-19T18:17:34.428Z,0.80
2023-03-19T18:18:34.338Z,0.90